Time;durP1;ratioP1;P1;durP2;ratioP2;P2;SDS_P1;SDS_P2;PMS_P1;PMS_P2;Temp;Humidity;BMP_temperature;BMP_pressure;BME280_temperature;BME280_humidity;BME280_pressure;Samples;Min_cycle;Max_cycle;Signal;HPM_P1;HPM_P2
2022/05/17 00:03:21;;;;;;;3.20;1.93;;;;;;;18.21;63.90;97141.19;10453123;28;20483;-23
2022/05/17 00:08:22;;;;;;;2.27;1.80;;;;;;;18.18;63.93;97141.16;10453387;28;20283;-25
2022/05/17 00:13:22;;;;;;;3.25;2.10;;;;;;;18.18;63.94;97136.09;10452619;28;20029;-23
2022/05/17 00:18:23;;;;;;;6.90;1.98;;;;;;;18.21;63.71;97131.03;10473521;28;20139;-23
2022/05/17 00:23:24;;;;;;;3.88;2.25;;;;;;;18.21;63.92;97138.66;10490908;28;20040;-24
2022/05/17 00:28:25;;;;;;;4.30;1.77;;;;;;;18.19;63.83;97130.19;10452755;28;20112;-23
2022/05/17 00:33:27;;;;;;;3.10;1.80;;;;;;;18.30;63.47;97126.06;10473174;28;20060;-23
2022/05/17 00:38:27;;;;;;;4.03;2.15;;;;;;;18.38;63.01;97124.44;10451436;28;20116;-23
2022/05/17 00:48:58;;;;;;;4.80;2.15;;;;;;;18.22;63.46;97112.47;10471857;28;20082;-22
2022/05/17 00:54:06;;;;;;;6.80;2.45;;;;;;;18.17;63.54;97119.19;10485961;28;20028;-25
2022/05/17 00:59:08;;;;;;;5.10;1.98;;;;;;;18.13;63.59;97107.31;10449664;28;20565;-23
2022/05/17 01:04:12;;;;;;;4.28;1.80;;;;;;;18.15;63.26;97108.22;10450040;28;20033;-23
2022/05/17 01:09:13;;;;;;;6.38;3.03;;;;;;;18.15;63.24;97100.59;10450413;28;20498;-23
2022/05/17 01:19:33;;;;;;;2.80;1.80;;;;;;;18.15;63.17;97098.06;10471752;28;20403;-24
2022/05/17 01:24:34;;;;;;;4.25;2.05;;;;;;;18.06;63.22;97090.38;10479542;28;20045;-24
2022/05/17 01:29:40;;;;;;;5.53;1.80;;;;;;;18.27;62.91;97103.22;10456573;28;20391;-22
2022/05/17 01:34:41;;;;;;;;;;;;;;;18.32;62.68;97104.16;10458261;28;20037;-23
2022/05/17 01:39:42;;;;;;;3.92;2.05;;;;;;;18.23;62.68;97099.81;10449774;28;19921;-24
2022/05/17 01:44:44;;;;;;;3.13;1.98;;;;;;;18.16;62.74;97097.25;10449562;28;20033;-23
2022/05/17 01:49:44;;;;;;;4.40;2.03;;;;;;;18.17;62.97;97096.41;10481642;28;20032;-23
2022/05/17 01:54:44;;;;;;;4.00;2.40;;;;;;;18.16;62.82;97094.69;10477591;28;20036;-24
2022/05/17 01:59:45;;;;;;;3.28;1.73;;;;;;;18.17;62.76;97098.94;10449257;28;20037;-23
2022/05/17 02:04:45;;;;;;;3.83;1.90;;;;;;;18.20;62.69;97081.19;10449015;28;20032;-24
2022/05/17 02:09:47;;;;;;;3.45;2.00;;;;;;;18.06;62.77;97076.03;10460721;28;20028;-23
2022/05/17 02:14:47;;;;;;;2.67;1.45;;;;;;;18.13;62.78;97087.06;10497593;28;20422;-23
2022/05/17 02:19:48;;;;;;;2.87;2.00;;;;;;;18.10;62.67;97081.97;10469509;28;20037;-23
2022/05/17 02:24:48;;;;;;;2.90;1.67;;;;;;;18.09;63.01;97085.34;10477034;28;20333;-23
2022/05/17 02:29:48;;;;;;;5.63;2.37;;;;;;;18.21;62.49;97086.28;10465583;28;20340;-23
2022/05/17 02:34:49;;;;;;;2.43;1.60;;;;;;;18.27;62.42;97088.00;10466741;28;20033;-25
2022/05/17 02:39:49;;;;;;;2.70;1.98;;;;;;;18.24;62.30;97095.59;10456638;28;20025;-23
2022/05/17 02:44:52;;;;;;;3.17;1.90;;;;;;;18.23;62.44;97092.22;10455717;28;20044;-24
2022/05/17 02:49:53;;;;;;;2.40;1.70;;;;;;;18.07;62.40;97082.81;10455430;28;20021;-25
2022/05/17 02:54:53;;;;;;;4.57;1.50;;;;;;;18.10;62.53;97089.59;10455909;28;20033;-24
2022/05/17 02:59:53;;;;;;;3.23;1.77;;;;;;;18.15;62.53;97090.47;10455620;28;20040;-23
2022/05/17 03:04:54;;;;;;;4.77;1.60;;;;;;;18.05;62.41;97079.41;10455032;28;20442;-25
2022/05/17 03:09:54;;;;;;;4.03;1.50;;;;;;;18.09;62.62;97087.88;10455558;28;20291;-24
2022/05/17 03:14:54;;;;;;;2.80;1.67;;;;;;;18.07;62.72;97092.94;10454745;28;20321;-23
2022/05/17 03:19:55;;;;;;;4.93;2.03;;;;;;;18.06;62.51;97090.38;10454668;28;20661;-22
2022/05/17 03:24:55;;;;;;;4.05;1.70;;;;;;;18.07;62.54;97089.56;10473847;28;20306;-23
2022/05/17 03:29:57;;;;;;;2.20;1.53;;;;;;;18.23;62.00;97096.41;10464292;28;20089;-23
2022/05/17 03:34:58;;;;;;;3.50;1.70;;;;;;;18.31;61.76;97098.22;10475915;28;20295;-24
2022/05/17 03:39:58;;;;;;;3.27;2.27;;;;;;;18.20;61.91;97109.06;10467065;28;20445;-23
2022/05/17 03:44:59;;;;;;;2.77;1.90;;;;;;;18.17;62.34;97104.81;10454032;28;20283;-23
2022/05/17 03:50:00;;;;;;;4.40;1.97;;;;;;;18.08;62.19;97103.94;10471520;28;20283;-22
2022/05/17 03:55:02;;;;;;;2.95;1.65;;;;;;;18.05;61.93;97101.34;10480158;28;20407;-23
2022/05/17 04:00:06;;;;;;;2.58;1.40;;;;;;;18.09;62.17;97103.09;10486589;28;20036;-22
2022/05/17 04:05:13;;;;;;;4.13;1.80;;;;;;;18.07;62.13;97099.69;10478653;28;20076;-22
2022/05/17 04:10:16;;;;;;;3.20;1.90;;;;;;;18.14;62.05;97103.94;10481753;28;20482;-24
2022/05/17 04:15:19;;;;;;;3.08;2.08;;;;;;;18.20;61.83;97116.69;10489020;28;20036;-23
2022/05/17 04:20:20;;;;;;;3.33;1.83;;;;;;;18.18;61.71;97110.75;10485575;28;20037;-23
2022/05/17 04:25:23;;;;;;;2.65;1.60;;;;;;;18.22;61.82;97110.78;10491370;28;20047;-24
2022/05/17 04:30:24;;;;;;;3.53;1.70;;;;;;;18.35;61.35;97106.69;10481474;28;20063;-23
2022/05/17 04:35:25;;;;;;;4.30;2.00;;;;;;;18.37;61.29;97110.06;10474514;28;20036;-24
2022/05/17 04:40:25;;;;;;;4.13;2.20;;;;;;;18.31;61.46;97120.16;10487378;28;20482;-24
2022/05/17 04:45:26;;;;;;;3.28;1.55;;;;;;;18.24;61.48;97115.88;10478832;28;20036;-23
2022/05/17 04:50:27;;;;;;;7.15;1.77;;;;;;;18.26;61.75;97114.19;10486031;28;20029;-23
2022/05/17 04:55:28;;;;;;;3.42;1.98;;;;;;;18.22;61.76;97115.84;10477680;28;20545;-23
2022/05/17 05:00:28;;;;;;;4.00;1.88;;;;;;;18.25;61.59;97117.56;10485806;28;20110;-22
2022/05/17 05:05:30;;;;;;;3.55;1.60;;;;;;;18.32;61.51;97120.19;10477674;28;20040;-23
2022/05/17 05:10:31;;;;;;;3.03;1.58;;;;;;;18.37;61.54;97117.69;10487171;28;20043;-24
2022/05/17 05:15:32;;;;;;;5.00;1.80;;;;;;;18.39;61.42;97116.00;10461691;28;20033;-23
2022/05/17 05:20:32;;;;;;;4.32;1.77;;;;;;;18.32;61.73;97126.97;10454295;28;20040;-24
2022/05/17 05:25:33;;;;;;;4.75;1.83;;;;;;;18.38;61.70;97124.44;10471030;28;20033;-24
2022/05/17 05:30:34;;;;;;;6.88;1.98;;;;;;;18.43;61.47;97126.16;10465001;28;20082;-21
2022/05/17 05:35:35;;;;;;;4.43;1.58;;;;;;;18.47;61.29;97127.03;10490864;28;20470;-23
2022/05/17 05:40:35;;;;;;;4.60;1.77;;;;;;;18.41;61.59;97134.63;10468755;28;20132;-23
2022/05/17 05:45:36;;;;;;;2.10;1.57;;;;;;;18.45;61.82;97132.13;10447164;28;20060;-24
2022/05/17 05:50:37;;;;;;;5.85;1.70;;;;;;;18.46;61.64;97127.88;10447003;28;20657;-23
2022/05/17 05:55:40;;;;;;;5.82;1.60;;;;;;;18.46;61.60;97138.00;10448923;28;20070;-24
2022/05/17 06:00:40;;;;;;;4.47;1.52;;;;;;;18.44;62.05;97134.63;10449511;28;20036;-24
2022/05/17 06:05:41;;;;;;;3.30;1.50;;;;;;;18.42;61.98;97133.78;10449654;28;20044;-23
2022/05/17 06:10:43;;;;;;;4.57;2.10;;;;;;;18.46;61.76;97141.41;10449765;28;20029;-22
2022/05/17 06:15:44;;;;;;;3.45;2.05;;;;;;;18.38;61.71;97129.50;10449071;28;20084;-24
2022/05/17 06:20:53;;;;;;;2.50;1.50;;;;;;;18.45;62.24;97141.41;10449882;28;20040;-23
2022/05/17 06:25:53;;;;;;;3.42;1.80;;;;;;;18.53;62.27;97139.75;10468308;28;20037;-23
2022/05/17 06:30:54;;;;;;;2.83;1.77;;;;;;;18.44;62.40;97134.63;10466683;28;20386;-23
2022/05/17 06:35:54;;;;;;;3.10;1.63;;;;;;;18.43;62.96;97148.97;10453348;28;20033;-23
2022/05/17 06:40:54;;;;;;;4.40;2.40;;;;;;;18.45;62.97;97152.41;10448451;28;20291;-23
2022/05/17 06:45:55;;;;;;;5.30;2.50;;;;;;;18.46;62.91;97145.63;10448805;28;20454;-24
2022/05/17 06:51:02;;;;;;;2.00;1.80;;;;;;;18.48;62.79;97149.88;10449441;28;20502;-24
2022/05/17 06:56:06;;;;;;;5.20;1.80;;;;;;;18.49;62.76;97146.50;10448552;28;20369;-24
2022/05/17 07:01:08;;;;;;;4.18;2.00;;;;;;;18.49;62.82;97143.13;10456577;28;20487;-22
2022/05/17 07:06:09;;;;;;;3.15;1.85;;;;;;;18.50;62.76;97149.91;10455265;28;20041;-23
2022/05/17 07:16:29;;;;;;;2.67;1.63;;;;;;;18.51;63.03;97141.44;10454786;28;20520;-23
2022/05/17 07:21:29;;;;;;;3.35;1.98;;;;;;;18.51;63.20;97152.41;10461572;28;20158;-23
2022/05/17 07:26:29;;;;;;;3.50;1.73;;;;;;;18.55;62.90;97150.75;10467814;28;20040;-24
2022/05/17 07:31:30;;;;;;;2.85;1.65;;;;;;;18.56;63.16;97149.91;10476926;28;20047;-23
2022/05/17 07:36:31;;;;;;;5.30;1.83;;;;;;;18.55;63.47;97148.22;10455065;28;20090;-24
2022/05/17 07:41:31;;;;;;;3.75;1.70;;;;;;;18.55;63.75;97153.28;10454109;28;20029;-23
2022/05/17 07:46:32;;;;;;;3.20;2.10;;;;;;;18.46;65.68;97150.69;10454193;28;20430;-24
2022/05/17 07:51:35;;;;;;;4.78;2.20;;;;;;;18.54;63.89;97151.59;10487834;28;20455;-23
2022/05/17 07:56:35;;;;;;;3.88;2.10;;;;;;;18.52;63.51;97153.28;10466529;28;20116;-24
2022/05/17 08:01:36;;;;;;;6.83;1.80;;;;;;;18.64;63.22;97153.34;10453137;28;20044;-25
2022/05/17 08:06:36;;;;;;;3.65;2.22;;;;;;;18.60;63.29;97141.50;10482060;28;20301;-24
2022/05/17 08:11:37;;;;;;;3.93;1.83;;;;;;;18.57;63.04;97139.78;10466153;28;20028;-24
2022/05/17 08:16:38;;;;;;;3.87;2.40;;;;;;;18.59;63.41;97139.81;10452737;28;20283;-24
2022/05/17 08:21:39;;;;;;;5.07;2.08;;;;;;;18.77;62.64;97137.38;10489463;28;20044;-23
2022/05/17 08:37:17;;;;;;;2.80;1.77;;;;;;;18.60;63.52;97132.19;10493273;28;20233;-23
2022/05/17 08:42:27;;;;;;;2.55;1.55;;;;;;;18.75;62.90;97118.78;10460038;28;20086;-23
2022/05/17 08:47:52;;;;;;;4.28;2.13;;;;;;;18.82;62.34;97123.03;10459990;28;20036;-23
2022/05/17 08:52:54;;;;;;;2.90;1.55;;;;;;;19.05;63.52;97123.97;10493079;28;20210;-23
2022/05/17 08:58:01;;;;;;;1.77;1.60;;;;;;;18.99;62.34;97121.44;10453656;28;20057;-23
2022/05/17 09:03:13;;;;;;;2.38;1.95;;;;;;;18.72;62.42;97114.53;10451169;28;20047;-24
2022/05/17 09:08:35;;;;;;;2.92;1.90;;;;;;;18.98;63.46;97124.78;10451063;28;20036;-24
2022/05/17 09:13:48;;;;;;;1.88;1.35;;;;;;;18.87;62.25;97116.28;10450965;28;20052;-22
2022/05/17 09:18:50;;;;;;;4.22;1.67;;;;;;;18.81;62.22;97118.78;10463912;28;20062;-24
2022/05/17 09:23:52;;;;;;;3.17;1.55;;;;;;;19.08;63.18;97119.75;10485375;28;20522;-23
2022/05/17 09:29:00;;;;;;;3.83;1.60;;;;;;;19.04;62.14;97114.66;10450832;28;20043;-24
2022/05/17 09:34:08;;;;;;;1.95;1.70;;;;;;;18.86;62.43;97114.59;10464988;28;20036;-23
2022/05/17 09:39:08;;;;;;;2.75;1.70;;;;;;;18.69;63.38;97106.03;10450298;28;20028;-24
2022/05/17 09:44:15;;;;;;;2.15;1.63;;;;;;;18.82;63.38;97107.81;10449768;28;20037;-23
2022/05/17 09:54:39;;;;;;;2.63;1.50;;;;;;;18.70;63.00;97112.81;10449299;28;20052;-23
2022/05/17 09:59:40;;;;;;;2.90;1.77;;;;;;;18.67;63.21;97112.81;10449978;28;20044;-24
2022/05/17 10:04:42;;;;;;;2.03;1.80;;;;;;;18.60;63.99;97111.91;10480274;28;20189;-23
2022/05/17 10:09:43;;;;;;;1.70;1.42;;;;;;;18.64;63.37;97102.63;10478215;28;20029;-24
2022/05/17 10:14:48;;;;;;;2.83;1.80;;;;;;;18.99;62.99;97103.66;10448888;28;20488;-23
2022/05/17 10:20:05;;;;;;;7.10;1.93;;;;;;;19.00;62.79;97097.75;10458822;28;20033;-23
2022/05/17 10:25:23;;;;;;;2.70;1.65;;;;;;;19.04;63.07;97086.75;10469853;28;20036;-23
2022/05/17 10:30:46;;;;;;;2.97;1.92;;;;;;;19.05;62.37;97088.44;10462674;28;20089;-23
2022/05/17 10:35:50;;;;;;;3.53;2.15;;;;;;;19.07;62.46;97081.66;10456200;28;20060;-23
2022/05/17 10:40:53;;;;;;;3.95;1.90;;;;;;;18.89;62.66;97082.47;10477562;28;20032;-23
2022/05/17 10:46:06;;;;;;;3.72;2.30;;;;;;;18.65;63.77;97071.34;10498021;28;20032;-20
2022/05/17 10:51:34;;;;;;;2.97;1.80;;;;;;;18.68;63.82;97073.91;10461285;28;20029;-22
2022/05/17 10:56:55;;;;;;;3.70;1.80;;;;;;;18.84;63.55;97061.28;10455836;28;20522;-24
2022/05/17 11:02:10;;;;;;;3.35;1.92;;;;;;;18.64;63.93;97062.91;10460315;28;20467;-23
2022/05/17 11:07:24;;;;;;;4.18;2.13;;;;;;;18.62;64.17;97063.72;10497017;28;20453;-22
2022/05/17 11:12:31;;;;;;;3.35;2.35;;;;;;;18.71;63.72;97057.03;10464474;28;20043;-23
2022/05/17 11:17:50;;;;;;;8.68;2.20;;;;;;;18.67;63.44;97042.63;10455511;28;20036;-24
2022/05/17 11:23:03;;;;;;;5.72;2.72;;;;;;;19.01;63.57;97043.59;10495264;28;20136;-23
2022/05/17 11:28:21;;;;;;;10.13;2.47;;;;;;;19.14;64.42;97042.78;10495026;28;20035;-23
2022/05/17 11:33:22;;;;;;;4.70;2.35;;;;;;;18.87;63.39;97037.63;10478740;28;20040;-24
2022/05/17 11:38:35;;;;;;;2.85;1.88;;;;;;;18.97;62.96;97037.69;10454650;28;20051;-25
2022/05/17 11:43:47;;;;;;;3.63;1.90;;;;;;;18.77;63.74;97029.13;10454076;28;20036;-25
2022/05/17 11:49:12;;;;;;;6.78;2.03;;;;;;;18.71;63.92;97024.06;10454164;28;20052;-24
2022/05/17 11:54:40;;;;;;;4.82;2.08;;;;;;;18.92;63.82;97018.22;10453794;28;20029;-23
2022/05/17 11:59:45;;;;;;;3.45;2.13;;;;;;;18.80;63.16;97010.53;10453588;28;20040;-24
2022/05/17 12:04:46;;;;;;;11.50;3.22;;;;;;;19.18;65.94;97021.66;10453694;28;20048;-23
2022/05/17 12:09:50;;;;;;;12.93;3.22;;;;;;;19.13;64.77;97008.97;10453266;28;20498;-23
2022/05/17 12:15:25;;;;;;;9.07;2.92;;;;;;;19.28;65.55;97008.16;10452702;28;20037;-23
2022/05/17 12:20:54;;;;;;;8.07;2.50;;;;;;;19.37;65.04;97003.09;10452189;28;20037;-24
2022/05/17 12:26:07;;;;;;;11.85;3.00;;;;;;;19.47;65.07;96994.63;10473647;28;20044;-23
2022/05/17 12:31:15;;;;;;;17.42;3.17;;;;;;;19.61;65.30;96998.03;10493867;28;20024;-22
2022/05/17 12:36:21;;;;;;;14.17;3.63;;;;;;;19.65;64.66;96981.94;10460062;28;20049;-23
2022/05/17 12:46:51;;;;;;;7.35;2.80;;;;;;;19.73;64.26;96972.59;10451578;28;20503;-23
2022/05/17 12:52:12;;;;;;;6.35;2.20;;;;;;;19.75;64.52;96973.47;10451600;28;20043;-22
2022/05/17 12:57:27;;;;;;;4.55;2.40;;;;;;;19.70;64.41;96967.53;10450446;28;20083;-22
2022/05/17 13:02:28;;;;;;;5.80;2.50;;;;;;;19.41;63.58;96966.72;10450799;28;20068;-22
2022/05/17 13:07:28;;;;;;;4.37;2.20;;;;;;;19.48;65.10;96950.63;10489293;28;20264;-22
2022/05/17 13:12:32;;;;;;;9.90;3.27;;;;;;;19.63;64.57;96950.63;10455984;28;20279;-22
2022/05/17 13:17:38;;;;;;;5.22;2.00;;;;;;;19.70;63.89;96947.22;10451624;28;20041;-23
2022/05/17 13:22:43;;;;;;;3.38;1.88;;;;;;;19.79;64.03;96947.22;10491432;28;20063;-22
2022/05/17 13:27:46;;;;;;;8.13;2.17;;;;;;;19.79;63.83;96942.97;10454439;28;20111;-22
2022/05/17 13:32:47;;;;;;;3.75;2.15;;;;;;;19.75;63.84;96943.00;10479033;28;20033;-23
2022/05/17 13:37:57;;;;;;;2.75;1.80;;;;;;;19.83;63.39;96938.75;10451117;28;20037;-21
2022/05/17 13:42:57;;;;;;;3.13;2.25;;;;;;;19.80;63.41;96929.44;10487688;28;20039;-22
2022/05/17 13:47:58;;;;;;;3.47;1.93;;;;;;;19.77;63.42;96923.50;10481019;28;20071;-22
2022/05/17 13:53:02;;;;;;;7.63;2.60;;;;;;;19.77;63.57;96926.88;10450005;28;20037;-21
2022/05/17 13:58:11;;;;;;;4.38;2.33;;;;;;;19.77;63.68;96926.88;10449396;28;20307;-22
2022/05/17 14:03:21;;;;;;;4.50;2.00;;;;;;;19.53;63.38;96915.91;10449402;28;20497;-21
2022/05/17 14:13:52;;;;;;;5.25;1.65;;;;;;;19.80;63.60;96908.25;10494424;28;20070;-22
2022/05/17 14:18:52;;;;;;;4.77;2.23;;;;;;;19.86;63.68;96905.69;10495629;28;20418;-22
2022/05/17 14:23:53;;;;;;;3.43;1.90;;;;;;;19.71;64.34;96898.97;10492878;28;20483;-22
2022/05/17 14:28:53;;;;;;;6.70;1.92;;;;;;;19.85;64.29;96893.84;10457868;28;20098;-22
2022/05/17 14:33:56;;;;;;;7.33;2.67;;;;;;;19.80;64.05;96887.91;10484870;28;20085;-21
2022/05/17 14:38:56;;;;;;;5.35;2.05;;;;;;;19.83;63.99;96887.94;10456268;28;20025;-23
2022/05/17 14:43:57;;;;;;;5.65;3.20;;;;;;;19.89;63.74;96887.91;10456160;28;20040;-22
2022/05/17 14:48:58;;;;;;;2.90;2.13;;;;;;;19.57;63.40;96869.34;10478444;28;20505;-21
2022/05/17 14:53:59;;;;;;;4.28;1.88;;;;;;;19.63;62.62;96889.66;10491319;28;20036;-23
2022/05/17 14:59:00;;;;;;;6.10;2.20;;;;;;;19.59;63.89;96877.81;10455984;28;20029;-22
2022/05/17 15:04:02;;;;;;;2.00;1.60;;;;;;;19.34;62.93;96871.09;10455901;28;20032;-22
2022/05/17 15:09:03;;;;;;;5.57;2.10;;;;;;;19.59;64.52;96880.38;10455348;28;20106;-23
2022/05/17 15:14:04;;;;;;;6.07;2.20;;;;;;;19.73;64.16;96868.44;10455277;28;20127;-21
2022/05/17 15:19:05;;;;;;;3.50;2.07;;;;;;;19.74;64.63;96854.91;10478446;28;20570;-20
2022/05/17 15:24:06;;;;;;;5.55;2.45;;;;;;;19.78;64.75;96859.13;10488918;28;20287;-22
2022/05/17 15:29:08;;;;;;;4.57;2.17;;;;;;;19.79;65.03;96854.06;10457735;28;20033;-22
2022/05/17 15:34:11;;;;;;;4.18;2.10;;;;;;;19.74;65.29;96857.44;10476009;28;20037;-23
2022/05/17 15:39:12;;;;;;;6.57;2.30;;;;;;;19.86;64.51;96862.50;10454267;28;20122;-23
2022/05/17 15:44:12;;;;;;;2.53;1.90;;;;;;;19.88;64.27;96851.50;10454314;28;20106;-23
2022/05/17 15:54:31;;;;;;;3.47;1.50;;;;;;;19.43;62.81;96850.75;10484207;28;20037;-20
2022/05/17 15:59:32;;;;;;;2.70;2.00;;;;;;;19.74;64.77;96854.91;10454035;28;20039;-22
2022/05/17 16:09:53;;;;;;;7.18;1.92;;;;;;;19.90;64.59;96839.63;10480486;28;20483;-22
2022/05/17 16:14:53;;;;;;;6.20;2.10;;;;;;;19.99;64.66;96848.88;10452325;28;20404;-21
2022/05/17 16:19:54;;;;;;;5.23;1.83;;;;;;;20.01;63.99;96852.28;10452120;28;20044;-22
2022/05/17 16:24:54;;;;;;;4.03;1.92;;;;;;;20.05;63.12;96843.81;10473302;28;20492;-22
2022/05/17 16:29:55;;;;;;;6.93;2.10;;;;;;;20.00;63.01;96845.53;10460974;28;20040;-23
2022/05/17 16:34:55;;;;;;;4.13;1.90;;;;;;;20.01;63.05;96849.75;10471290;28;20293;-22
2022/05/17 16:39:56;;;;;;;5.00;1.97;;;;;;;19.99;62.82;96846.34;10452507;28;20056;-21
2022/05/17 16:44:56;;;;;;;4.43;2.15;;;;;;;19.96;62.54;96843.81;10451319;28;20037;-24
2022/05/17 16:50:02;;;;;;;3.27;2.17;;;;;;;19.98;62.22;96839.56;10454902;28;20726;-22
2022/05/17 16:55:02;;;;;;;4.30;2.13;;;;;;;19.98;62.47;96832.81;10446280;28;20287;-22
2022/05/17 17:00:04;;;;;;;3.28;1.73;;;;;;;20.01;62.46;96844.66;10446690;28;20321;-22
2022/05/17 17:05:11;;;;;;;2.97;1.92;;;;;;;19.99;62.92;96838.72;10446200;28;20404;-23
2022/05/17 17:10:20;;;;;;;5.03;2.00;;;;;;;20.01;63.12;96842.13;10470666;28;20086;-22
2022/05/17 17:15:22;;;;;;;5.22;2.20;;;;;;;19.91;63.93;96840.47;10491959;28;20032;-22
2022/05/17 17:20:23;;;;;;;6.68;2.50;;;;;;;19.85;64.30;96846.41;10462399;28;20052;-21
2022/05/17 17:25:24;;;;;;;3.47;2.22;;;;;;;19.90;64.13;96846.38;10474913;28;20054;-22
2022/05/17 17:30:28;;;;;;;5.78;2.28;;;;;;;19.93;64.47;96848.94;10491338;28;20116;-22
2022/05/17 17:40:47;;;;;;;9.95;2.85;;;;;;;19.99;65.01;96854.84;10469572;28;20411;-22
2022/05/17 17:45:54;;;;;;;11.13;2.85;;;;;;;20.01;65.13;96857.38;10483799;28;20075;-21
2022/05/17 17:50:54;;;;;;;4.10;2.28;;;;;;;20.00;65.37;96855.69;10483893;28;20034;-23
2022/05/17 17:55:55;;;;;;;7.28;2.55;;;;;;;20.01;65.44;96857.38;10491667;28;20124;-22
2022/05/17 18:00:55;;;;;;;6.43;3.20;;;;;;;20.01;64.77;96854.84;10494026;28;20032;-21
2022/05/17 18:05:57;;;;;;;6.50;3.03;;;;;;;20.03;64.64;96860.75;10491224;28;20294;-21
2022/05/17 18:11:00;;;;;;;4.07;2.50;;;;;;;19.95;65.26;96865.88;10470929;28;20044;-23
2022/05/17 18:16:03;;;;;;;2.50;1.88;;;;;;;19.55;63.07;96871.91;10452465;28;20040;-22
2022/05/17 18:21:04;;;;;;;3.60;1.83;;;;;;;19.34;63.19;96874.44;10489840;28;20138;-23
2022/05/17 18:26:04;;;;;;;4.67;1.53;;;;;;;19.29;63.21;96881.25;10490891;28;20149;-22
2022/05/17 18:31:09;;;;;;;5.77;1.97;;;;;;;19.27;62.69;96869.41;10492356;28;20048;-22
2022/05/17 18:36:19;;;;;;;2.47;1.85;;;;;;;19.35;62.75;96878.69;10489106;28;20036;-22
2022/05/17 18:41:21;;;;;;;3.08;1.75;;;;;;;19.32;62.68;96880.38;10465456;28;20117;-22
2022/05/17 18:46:21;;;;;;;2.97;1.70;;;;;;;19.28;62.61;96876.16;10451673;28;20545;-23
2022/05/17 18:51:22;;;;;;;6.07;2.00;;;;;;;19.42;64.70;96884.63;10489591;28;20040;-23
2022/05/17 18:56:22;;;;;;;5.73;2.40;;;;;;;19.49;64.43;96886.31;10472935;28;20040;-22
2022/05/17 19:01:22;;;;;;;3.63;2.20;;;;;;;19.59;62.94;96890.53;10457716;28;20029;-23
2022/05/17 19:06:24;;;;;;;4.10;1.60;;;;;;;19.46;62.01;96887.16;10455541;28;20060;-22
2022/05/17 19:16:46;;;;;;;3.17;1.50;;;;;;;19.20;62.77;96913.38;10454702;28;20060;-22
2022/05/17 19:21:51;;;;;;;1.98;1.50;;;;;;;19.12;62.71;96910.81;10455649;28;20822;-22
2022/05/17 19:26:53;;;;;;;2.97;1.63;;;;;;;19.17;62.71;96923.53;10455003;28;20054;-21
2022/05/17 19:31:57;;;;;;;2.05;1.73;;;;;;;19.09;62.80;96935.34;10480156;28;20527;-23
2022/05/17 19:42:30;;;;;;;2.50;1.50;;;;;;;19.07;63.05;96942.09;10453721;28;20044;-22
2022/05/17 19:47:31;;;;;;;3.40;2.40;;;;;;;19.03;62.77;96950.56;10460956;28;20028;-23
2022/05/17 19:52:32;;;;;;;4.75;2.20;;;;;;;18.98;63.59;96959.84;10469433;28;20040;-23
2022/05/17 19:57:32;;;;;;;2.00;1.80;;;;;;;19.06;63.13;96970.84;10456835;28;20407;-22
2022/05/17 20:02:32;;;;;;;2.17;1.47;;;;;;;19.06;63.07;96963.25;10453103;28;20041;-23
2022/05/17 20:07:33;;;;;;;2.17;1.90;;;;;;;18.92;63.58;96962.41;10471864;28;20283;-22
2022/05/17 20:12:35;;;;;;;2.38;2.10;;;;;;;18.94;64.34;96976.78;10458231;28;20120;-23
2022/05/17 20:17:36;;;;;;;2.35;2.05;;;;;;;18.90;64.16;96987.75;10453249;28;20044;-22
2022/05/17 20:22:38;;;;;;;5.37;2.00;;;;;;;18.88;64.34;96986.91;10469822;28;20047;-23
2022/05/17 20:27:39;;;;;;;2.63;2.33;;;;;;;18.89;64.11;96986.06;10457233;28;20033;-23
2022/05/17 20:32:40;;;;;;;3.45;2.33;;;;;;;18.83;64.60;96997.88;10468370;28;20041;-23
2022/05/17 20:37:40;;;;;;;4.22;2.80;;;;;;;18.87;64.23;96995.38;10453605;28;20037;-22
2022/05/17 20:42:41;;;;;;;3.17;2.40;;;;;;;18.79;64.60;96986.03;10475833;28;20470;-23
2022/05/17 20:53:01;;;;;;;3.47;2.10;;;;;;;18.88;64.14;96998.72;10451365;28;20048;-22
2022/05/17 20:58:01;;;;;;;5.20;2.22;;;;;;;18.94;63.65;97001.28;10451429;28;20081;-24
2022/05/17 21:03:02;;;;;;;5.00;2.47;;;;;;;18.86;64.25;96997.88;10451463;28;20033;-23
2022/05/17 21:08:05;;;;;;;4.97;2.58;;;;;;;18.82;64.66;96998.75;10451814;28;20405;-23
2022/05/17 21:13:05;;;;;;;4.15;2.50;;;;;;;18.76;64.49;97013.94;10450852;28;20045;-22
2022/05/17 21:18:09;;;;;;;3.25;2.42;;;;;;;18.63;64.74;96995.28;10467322;28;20029;-24
2022/05/17 21:23:09;;;;;;;3.40;2.22;;;;;;;18.76;64.56;97016.47;10491733;28;20445;-23
2022/05/17 21:28:12;;;;;;;6.77;2.60;;;;;;;18.67;64.92;97006.28;10451376;28;20024;-23
2022/05/17 21:33:13;;;;;;;3.38;2.75;;;;;;;18.74;64.23;97002.94;10483910;28;20063;-23
2022/05/17 21:38:17;;;;;;;6.00;2.42;;;;;;;18.67;64.51;97012.19;10450439;28;20033;-26
2022/05/17 21:43:18;;;;;;;3.55;2.58;;;;;;;18.61;64.82;97019.78;10491672;28;20127;-25
2022/05/17 21:48:18;;;;;;;5.75;2.72;;;;;;;18.62;64.67;97013.00;10474069;28;20116;-24
2022/05/17 21:53:19;;;;;;;5.13;3.13;;;;;;;18.72;63.91;97009.66;10468296;28;20048;-23
2022/05/17 21:58:25;;;;;;;4.70;2.50;;;;;;;18.78;63.57;97014.78;10450273;28;20820;-24
2022/05/17 22:03:25;;;;;;;4.80;2.40;;;;;;;18.68;64.35;97015.59;10449236;28;20033;-24
2022/05/17 22:08:26;;;;;;;6.85;2.40;;;;;;;18.65;64.14;97018.09;10449365;28;20059;-24
2022/05/17 22:13:45;;;;;;;6.07;2.80;;;;;;;18.63;64.40;97019.78;10449137;28;20525;-22
2022/05/17 22:18:48;;;;;;;4.43;2.95;;;;;;;18.58;64.32;97026.53;10449226;28;20033;-23
2022/05/17 22:23:49;;;;;;;4.38;2.53;;;;;;;18.57;64.29;97014.72;10470032;28;20074;-25
2022/05/17 22:28:49;;;;;;;5.70;2.60;;;;;;;18.56;64.25;97028.19;10453972;28;20246;-24
2022/05/17 22:33:50;;;;;;;3.72;3.20;;;;;;;18.54;64.45;97025.69;10497415;28;20068;-23
2022/05/17 22:38:53;;;;;;;4.68;3.08;;;;;;;18.50;64.37;97020.59;10493314;28;20032;-22
2022/05/17 22:43:53;;;;;;;4.55;2.78;;;;;;;18.55;64.42;97026.50;10457053;28;20348;-23
2022/05/17 22:48:54;;;;;;;3.83;2.60;;;;;;;18.58;64.27;97034.16;10457260;28;20037;-22
2022/05/17 22:53:58;;;;;;;5.37;2.70;;;;;;;18.66;63.76;97019.81;10456113;28;20287;-23
2022/05/17 22:58:59;;;;;;;3.50;2.80;;;;;;;18.58;63.93;97026.53;10456951;28;20112;-24
2022/05/17 23:03:59;;;;;;;3.67;2.90;;;;;;;18.52;63.97;97032.44;10455557;28;20029;-24
2022/05/17 23:08:59;;;;;;;3.28;2.58;;;;;;;18.50;64.22;97029.03;10455703;28;20060;-23
2022/05/17 23:14:00;;;;;;;3.70;2.67;;;;;;;18.50;64.16;97033.25;10455466;28;20032;-24
2022/05/17 23:19:01;;;;;;;3.00;2.30;;;;;;;18.48;64.28;97029.84;10455269;28;20029;-23
2022/05/17 23:24:01;;;;;;;3.13;2.20;;;;;;;18.48;64.23;97032.38;10476100;28;20109;-23
2022/05/17 23:29:02;;;;;;;2.97;2.67;;;;;;;18.47;64.23;97025.63;10457937;28;20029;-23
2022/05/17 23:34:02;;;;;;;4.93;3.10;;;;;;;18.43;64.21;97032.34;10474724;28;20091;-23
2022/05/17 23:39:05;;;;;;;3.88;2.70;;;;;;;18.46;64.31;97034.06;10459147;28;20025;-22
2022/05/17 23:44:06;;;;;;;3.65;2.75;;;;;;;18.43;64.49;97036.59;10495469;28;20041;-23
2022/05/17 23:49:06;;;;;;;4.13;3.13;;;;;;;18.52;64.04;97034.09;10479731;28;20039;-23
2022/05/17 23:54:06;;;;;;;3.83;2.53;;;;;;;18.55;63.64;97032.44;10459727;28;20032;-24
2022/05/17 23:59:07;;;;;;;2.90;2.60;;;;;;;18.55;63.59;97027.38;10495862;28;20094;-24
